Time,TemperatureF,DewpointF,PressureIn,WindDirection,WindDirectionDegrees,WindSpeedMPH,WindSpeedGustMPH,Humidity,HourlyPrecipIn,Conditions,Clouds,dailyrainin,SoftwareType,DateUTC
2013-03-23 00:05:00,50.2,41.0,30.06,SSW,211,0.0,0.0,71,0.00,,,0.00,weatherlink.com 1.10,2013-03-23 04:05:00,
2013-03-23 00:20:00,50.1,41.0,30.06,SSW,211,0.0,0.0,72,0.00,,,0.00,weatherlink.com 1.10,2013-03-23 04:20:00,
2013-03-23 00:35:00,50.2,41.0,30.06,SSW,211,0.0,0.0,72,0.00,,,0.00,weatherlink.com 1.10,2013-03-23 04:35:00,
2013-03-23 00:50:00,50.4,42.0,30.06,SSW,211,0.0,0.0,73,0.00,,,0.00,weatherlink.com 1.10,2013-03-23 04:50:00,
2013-03-23 01:05:00,50.6,42.0,30.05,SSW,211,0.0,0.0,73,0.00,,,0.00,weatherlink.com 1.10,2013-03-23 05:05:00,
2013-03-23 01:20:00,50.5,42.0,30.05,SSW,211,0.0,0.0,73,0.00,,,0.00,weatherlink.com 1.10,2013-03-23 05:20:00,
2013-03-23 01:35:00,50.4,42.0,30.05,SSW,211,0.0,2.0,73,0.00,,,0.00,weatherlink.com 1.10,2013-03-23 05:35:00,
2013-03-23 01:50:00,50.4,42.0,30.05,SSW,211,0.0,0.0,73,0.00,,,0.00,weatherlink.com 1.10,2013-03-23 05:50:00,
2013-03-23 02:05:00,50.6,42.0,30.05,SSW,211,0.0,0.0,72,0.00,,,0.00,weatherlink.com 1.10,2013-03-23 06:05:00,
2013-03-23 02:20:00,50.9,43.0,30.05,SSW,211,0.0,3.0,73,0.00,,,0.00,weatherlink.com 1.10,2013-03-23 06:20:00,
2013-03-23 02:35:00,51.2,43.0,30.05,SSW,211,0.0,3.0,74,0.00,,,0.00,weatherlink.com 1.10,2013-03-23 06:35:00,
2013-03-23 02:50:00,50.7,43.0,30.05,SSW,211,0.0,1.0,75,0.00,,,0.00,weatherlink.com 1.10,2013-03-23 06:50:00,
2013-03-23 03:05:00,50.4,43.0,30.04,SSW,211,0.0,0.0,77,0.00,,,0.00,weatherlink.com 1.10,2013-03-23 07:05:00,
2013-03-23 03:20:00,49.8,43.0,30.03,SSW,211,0.0,0.0,78,0.00,,,0.00,weatherlink.com 1.10,2013-03-23 07:20:00,
2013-03-23 03:35:00,49.8,43.0,30.03,SSW,211,0.0,0.0,78,0.00,,,0.00,weatherlink.com 1.10,2013-03-23 07:35:00,
2013-03-23 03:50:00,49.2,43.0,30.02,SSW,211,0.0,0.0,79,0.00,,,0.00,weatherlink.com 1.10,2013-03-23 07:50:00,
2013-03-23 04:05:00,49.3,43.0,30.02,SSW,211,0.0,3.0,78,0.00,,,0.00,weatherlink.com 1.10,2013-03-23 08:05:00,
2013-03-23 04:20:00,49.1,43.0,30.02,SSW,211,0.0,1.0,80,0.00,,,0.00,weatherlink.com 1.10,2013-03-23 08:20:00,
2013-03-23 05:06:00,49.6,44.0,30.01,SSW,211,0.0,0.0,81,0.00,,,0.00,weatherlink.com 1.10,2013-03-23 09:06:00,
2013-03-23 06:06:00,50.4,44.0,30.00,SSW,211,1.0,1.0,80,0.00,,,0.00,weatherlink.com 1.10,2013-03-23 10:06:00,
2013-03-23 06:51:00,51.2,45.0,30.00,SSW,211,0.0,3.0,79,0.00,,,0.00,weatherlink.com 1.10,2013-03-23 10:51:00,
2013-03-23 07:06:00,51.4,45.0,30.00,SSW,211,0.0,5.0,80,0.00,,,0.00,weatherlink.com 1.10,2013-03-23 11:06:00,
2013-03-23 07:21:00,51.6,46.0,30.00,SSW,211,0.0,4.0,82,0.00,,,0.00,weatherlink.com 1.10,2013-03-23 11:21:00,
2013-03-23 07:36:00,51.6,47.0,30.00,SSW,210,4.0,6.0,84,0.00,,,0.00,weatherlink.com 1.10,2013-03-23 11:36:00,
2013-03-23 07:51:00,51.5,46.0,30.00,SSW,207,0.0,5.0,82,0.00,,,0.00,weatherlink.com 1.10,2013-03-23 11:51:00,
2013-03-23 08:06:00,51.7,46.0,30.00,East,93,0.0,7.0,82,0.00,,,0.00,weatherlink.com 1.10,2013-03-23 12:06:00,
2013-03-23 08:21:00,52.4,46.0,30.00,East,85,2.0,8.0,80,0.00,,,0.00,weatherlink.com 1.10,2013-03-23 12:21:00,
2013-03-23 08:36:00,52.9,46.0,30.00,ENE,69,0.0,10.0,77,0.00,,,0.00,weatherlink.com 1.10,2013-03-23 12:36:00,
2013-03-23 08:51:00,53.4,45.0,30.00,ENE,69,0.0,7.0,74,0.00,,,0.00,weatherlink.com 1.10,2013-03-23 12:51:00,
2013-03-23 09:06:00,54.0,45.0,30.01,East,82,11.0,11.0,71,0.00,,,0.00,weatherlink.com 1.10,2013-03-23 13:06:00,
2013-03-23 09:21:00,53.7,46.0,30.01,East,82,7.0,8.0,76,0.00,,,0.00,weatherlink.com 1.10,2013-03-23 13:21:00,
2013-03-23 09:36:00,55.1,47.0,30.00,ENE,76,9.0,12.0,74,0.00,,,0.00,weatherlink.com 1.10,2013-03-23 13:36:00,
2013-03-23 09:51:00,54.6,46.0,30.00,East,81,3.0,9.0,74,0.00,,,0.00,weatherlink.com 1.10,2013-03-23 13:51:00,
2013-03-23 10:06:00,54.8,45.0,30.01,ENE,72,0.0,9.0,69,0.00,,,0.00,weatherlink.com 1.10,2013-03-23 14:06:00,
2013-03-23 10:21:00,54.4,44.0,30.00,ENE,68,0.0,8.0,67,0.00,,,0.00,weatherlink.com 1.10,2013-03-23 14:21:00,
2013-03-23 10:36:00,55.6,44.0,30.01,NE,53,6.0,8.0,66,0.00,,,0.00,weatherlink.com 1.10,2013-03-23 14:36:00,
2013-03-23 10:51:00,55.4,42.0,30.01,NE,42,4.0,11.0,62,0.00,,,0.00,weatherlink.com 1.10,2013-03-23 14:51:00,
2013-03-23 11:06:00,54.9,41.0,30.02,NE,42,6.0,9.0,61,0.00,,,0.00,weatherlink.com 1.10,2013-03-23 15:06:00,
2013-03-23 11:21:00,53.5,41.0,30.02,NNW,348,5.0,16.0,63,0.00,,,0.00,weatherlink.com 1.10,2013-03-23 15:21:00,
2013-03-23 11:36:00,52.7,41.0,30.02,NNE,26,7.0,13.0,65,0.00,,,0.00,weatherlink.com 1.10,2013-03-23 15:36:00,
2013-03-23 11:51:00,51.9,40.0,30.01,NNE,26,9.0,17.0,64,0.00,,,0.00,weatherlink.com 1.10,2013-03-23 15:51:00,
2013-03-23 12:07:00,50.2,40.0,30.05,North,351,12.0,22.0,68,0.00,,,0.00,weatherlink.com 1.10,2013-03-23 16:07:00,
2013-03-23 12:21:00,47.4,41.0,30.04,North,5,7.0,16.0,79,0.04,,,0.04,weatherlink.com 1.10,2013-03-23 16:21:00,
2013-03-23 12:37:00,45.9,42.0,30.03,North,355,14.0,14.0,86,0.12,,,0.12,weatherlink.com 1.10,2013-03-23 16:37:00,
2013-03-23 12:52:00,44.9,42.0,30.02,NNE,33,8.0,18.0,88,0.20,,,0.20,weatherlink.com 1.10,2013-03-23 16:52:00,
2013-03-23 13:07:00,44.7,42.0,30.02,North,5,9.0,18.0,90,0.25,,,0.25,weatherlink.com 1.10,2013-03-23 17:07:00,
2013-03-23 13:22:00,45.1,43.0,30.03,NNW,348,7.0,14.0,91,0.28,,,0.32,weatherlink.com 1.10,2013-03-23 17:22:00,
2013-03-23 13:37:00,45.4,43.0,30.03,North,5,9.0,13.0,92,0.26,,,0.38,weatherlink.com 1.10,2013-03-23 17:37:00,
2013-03-23 13:52:00,45.5,44.0,30.03,North,355,12.0,16.0,93,0.23,,,0.43,weatherlink.com 1.10,2013-03-23 17:52:00,
2013-03-23 14:07:00,46.0,44.0,30.01,NNW,347,0.0,13.0,94,0.21,,,0.46,weatherlink.com 1.10,2013-03-23 18:07:00,
2013-03-23 14:22:00,46.5,45.0,30.00,North,355,2.0,10.0,94,0.18,,,0.50,weatherlink.com 1.10,2013-03-23 18:22:00,
2013-03-23 14:37:00,47.3,46.0,29.99,North,355,0.0,8.0,94,0.16,,,0.54,weatherlink.com 1.10,2013-03-23 18:37:00,
2013-03-23 14:52:00,48.0,46.0,29.97,North,355,0.0,4.0,94,0.12,,,0.55,weatherlink.com 1.10,2013-03-23 18:52:00,
2013-03-23 15:07:00,48.4,47.0,29.95,East,88,5.0,10.0,94,0.08,,,0.55,weatherlink.com 1.10,2013-03-23 19:07:00,
2013-03-23 15:22:00,49.5,48.0,29.92,SE,142,7.0,10.0,95,0.04,,,0.55,weatherlink.com 1.10,2013-03-23 19:22:00,
2013-03-23 15:37:00,50.3,49.0,29.91,SE,143,1.0,9.0,94,0.01,,,0.55,weatherlink.com 1.10,2013-03-23 19:37:00,
2013-03-23 15:52:00,50.7,49.0,29.90,SE,132,0.0,11.0,95,0.00,,,0.55,weatherlink.com 1.10,2013-03-23 19:52:00,
2013-03-23 16:07:00,51.0,49.0,29.90,ESE,112,9.0,13.0,94,0.00,,,0.55,weatherlink.com 1.10,2013-03-23 20:07:00,
2013-03-23 16:22:00,51.5,50.0,29.89,East,86,7.0,12.0,94,0.00,,,0.55,weatherlink.com 1.10,2013-03-23 20:22:00,
2013-03-23 16:37:00,52.0,50.0,29.89,East,98,10.0,12.0,94,0.00,,,0.55,weatherlink.com 1.10,2013-03-23 20:37:00,
2013-03-23 16:52:00,52.2,51.0,29.88,East,101,3.0,13.0,94,0.00,,,0.55,weatherlink.com 1.10,2013-03-23 20:52:00,
2013-03-23 17:07:00,52.6,51.0,29.87,ENE,76,7.0,13.0,93,0.00,,,0.55,weatherlink.com 1.10,2013-03-23 21:07:00,
2013-03-23 17:22:00,53.0,51.0,29.88,NE,55,8.0,11.0,93,0.00,,,0.55,weatherlink.com 1.10,2013-03-23 21:22:00,
2013-03-23 17:37:00,53.0,51.0,29.89,ENE,59,0.0,13.0,92,0.00,,,0.55,weatherlink.com 1.10,2013-03-23 21:37:00,
2013-03-23 17:52:00,52.8,51.0,29.89,NE,49,3.0,10.0,92,0.00,,,0.55,weatherlink.com 1.10,2013-03-23 21:52:00,
2013-03-23 18:07:00,52.3,50.0,29.90,NE,55,0.0,11.0,92,0.00,,,0.55,weatherlink.com 1.10,2013-03-23 22:07:00,
2013-03-23 18:22:00,52.3,50.0,29.91,NE,56,4.0,7.0,93,0.00,,,0.55,weatherlink.com 1.10,2013-03-23 22:22:00,
2013-03-23 18:37:00,52.1,50.0,29.90,NNE,30,7.0,11.0,93,0.00,,,0.55,weatherlink.com 1.10,2013-03-23 22:37:00,
2013-03-23 18:52:00,52.0,50.0,29.92,NNE,30,3.0,9.0,93,0.00,,,0.55,weatherlink.com 1.10,2013-03-23 22:52:00,
2013-03-23 19:07:00,51.7,50.0,29.93,North,11,8.0,13.0,93,0.00,,,0.55,weatherlink.com 1.10,2013-03-23 23:07:00,
2013-03-23 19:22:00,50.8,49.0,29.94,NNE,21,7.0,14.0,93,0.00,,,0.55,weatherlink.com 1.10,2013-03-23 23:22:00,
2013-03-23 19:37:00,50.5,49.0,29.94,North,355,7.0,13.0,93,0.00,,,0.55,weatherlink.com 1.10,2013-03-23 23:37:00,
2013-03-23 19:52:00,50.2,48.0,29.95,North,349,6.0,13.0,93,0.00,,,0.55,weatherlink.com 1.10,2013-03-23 23:52:00,
2013-03-23 20:07:00,49.9,48.0,29.95,NNE,25,13.0,14.0,93,0.00,,,0.55,weatherlink.com 1.10,2013-03-24 00:07:00,
2013-03-23 20:22:00,49.6,48.0,29.95,North,355,4.0,12.0,93,0.00,,,0.55,weatherlink.com 1.10,2013-03-24 00:22:00,
2013-03-23 20:37:00,49.6,48.0,29.94,NNE,19,4.0,10.0,93,0.00,,,0.55,weatherlink.com 1.10,2013-03-24 00:37:00,
2013-03-23 20:52:00,49.8,48.0,29.95,NNE,19,7.0,10.0,93,0.00,,,0.55,weatherlink.com 1.10,2013-03-24 00:52:00,
2013-03-23 21:07:00,49.9,48.0,29.95,NNE,25,5.0,11.0,92,0.00,,,0.55,weatherlink.com 1.10,2013-03-24 01:07:00,
2013-03-23 21:22:00,50.0,48.0,29.95,NNE,26,2.0,8.0,92,0.00,,,0.55,weatherlink.com 1.10,2013-03-24 01:22:00,
2013-03-23 21:37:00,50.1,48.0,29.94,NNE,30,0.0,7.0,92,0.00,,,0.55,weatherlink.com 1.10,2013-03-24 01:37:00,
2013-03-23 21:52:00,50.8,49.0,29.94,NE,36,2.0,8.0,92,0.00,,,0.55,weatherlink.com 1.10,2013-03-24 01:52:00,
2013-03-23 22:07:00,50.8,48.0,29.95,NNE,22,3.0,10.0,91,0.00,,,0.55,weatherlink.com 1.10,2013-03-24 02:07:00,
2013-03-23 22:22:00,50.5,48.0,29.94,NNE,15,3.0,11.0,91,0.00,,,0.55,weatherlink.com 1.10,2013-03-24 02:22:00,
2013-03-23 22:37:00,50.3,48.0,29.93,NNE,28,3.0,11.0,91,0.00,,,0.55,weatherlink.com 1.10,2013-03-24 02:37:00,
2013-03-23 22:52:00,50.1,48.0,29.92,NE,39,3.0,11.0,91,0.00,,,0.55,weatherlink.com 1.10,2013-03-24 02:52:00,
2013-03-23 23:07:00,50.3,48.0,29.92,NE,34,1.0,9.0,92,0.00,,,0.55,weatherlink.com 1.10,2013-03-24 03:07:00,
2013-03-23 23:22:00,50.5,48.0,29.92,NNE,22,2.0,8.0,91,0.00,,,0.55,weatherlink.com 1.10,2013-03-24 03:22:00,
2013-03-23 23:37:00,50.6,48.0,29.90,NNE,21,8.0,9.0,91,0.00,,,0.55,weatherlink.com 1.10,2013-03-24 03:37:00,
2013-03-23 23:52:00,50.7,48.0,29.89,NNE,18,4.0,10.0,91,0.00,,,0.55,weatherlink.com 1.10,2013-03-24 03:52:00,